Time;durP1;ratioP1;P1;durP2;ratioP2;P2;SDS_P1;SDS_P2;PMS_P1;PMS_P2;Temp;Humidity;BMP_temperature;BMP_pressure;BME280_temperature;BME280_humidity;BME280_pressure;Samples;Min_cycle;Max_cycle;Signal;HPM_P1;HPM_P2
2021/01/31 00:03:38;;;;;;;7.72;4.05;;;;;;;4.80;58.37;97939.19;5777720;23;20053;-78
2021/01/31 00:06:04;;;;;;;7.55;4.57;;;;;;;4.79;58.34;97941.00;4878556;29;20041;-78
2021/01/31 00:08:35;;;;;;;15.80;5.28;;;;;;;4.77;58.33;97940.50;4883766;29;20041;-81
2021/01/31 00:11:18;;;;;;;8.77;4.63;;;;;;;4.70;58.52;97932.03;5068333;24;20078;-82
2021/01/31 00:13:48;;;;;;;14.27;6.10;;;;;;;4.75;58.71;97941.84;5511743;23;20027;31
2021/01/31 00:16:13;;;;;;;11.95;6.05;;;;;;;4.76;59.13;97948.69;4835134;29;20083;-81
2021/01/31 00:18:41;;;;;;;9.20;5.50;;;;;;;4.74;59.12;97948.97;4861891;29;20503;-80
2021/01/31 00:21:06;;;;;;;13.85;6.43;;;;;;;4.69;59.00;97945.50;4863132;29;20037;-80
2021/01/31 00:23:33;;;;;;;10.15;5.07;;;;;;;4.69;58.86;97954.28;4864697;29;20033;-80
2021/01/31 00:25:59;;;;;;;9.93;4.78;;;;;;;4.67;58.65;97950.31;4836065;29;20034;-82
2021/01/31 00:28:26;;;;;;;10.10;5.22;;;;;;;4.64;59.03;97952.41;4872604;29;20089;-80
2021/01/31 00:30:53;;;;;;;13.20;6.13;;;;;;;4.62;58.94;97951.09;4839679;29;20033;-81
2021/01/31 00:33:24;;;;;;;9.43;4.25;;;;;;;4.60;59.17;97948.72;4864107;29;20483;-78
2021/01/31 00:35:51;;;;;;;9.35;4.57;;;;;;;4.56;59.21;97954.78;4843646;29;20561;-78
2021/01/31 00:38:54;;;;;;;10.57;6.07;;;;;;;4.55;59.14;97963.78;5182867;24;20066;-83
2021/01/31 00:41:41;;;;;;;12.32;5.45;;;;;;;4.51;59.51;97962.72;4867744;29;20037;-80
2021/01/31 00:44:07;;;;;;;10.15;6.30;;;;;;;4.48;59.38;97964.06;4849154;29;20048;-81
2021/01/31 00:46:35;;;;;;;11.90;6.03;;;;;;;4.46;59.23;97960.88;4859925;29;20033;-81
2021/01/31 00:49:25;;;;;;;20.23;8.23;;;;;;;4.44;59.33;97966.44;4839168;29;20033;-83
2021/01/31 00:51:50;;;;;;;24.23;10.07;;;;;;;4.42;58.99;97959.78;4861700;29;20068;-79
2021/01/31 00:54:16;;;;;;;31.55;14.57;;;;;;;4.38;59.56;97959.53;4877192;29;20128;-79
2021/01/31 00:56:41;;;;;;;31.63;14.80;;;;;;;4.35;59.84;97967.22;4876606;29;20033;-79
2021/01/31 00:59:06;;;;;;;38.65;18.00;;;;;;;4.30;60.52;97962.69;4877018;29;20044;-78
2021/01/31 01:01:32;;;;;;;31.52;14.98;;;;;;;4.30;60.58;97974.06;4876078;29;20414;-78
2021/01/31 01:03:57;;;;;;;31.75;13.10;;;;;;;4.27;60.88;97969.31;4877744;29;20100;-75
2021/01/31 01:06:22;;;;;;;24.52;12.20;;;;;;;4.25;60.66;97968.75;4878138;29;20033;-76
2021/01/31 01:08:48;;;;;;;17.67;8.25;;;;;;;4.20;60.67;97967.94;4860947;29;20048;-76
2021/01/31 01:11:13;;;;;;;15.77;8.40;;;;;;;4.18;60.28;97970.84;4877063;29;20032;-76
2021/01/31 01:13:39;;;;;;;17.55;8.40;;;;;;;4.16;60.50;97970.31;4870230;29;20473;-76
2021/01/31 01:16:04;;;;;;;20.50;10.63;;;;;;;4.11;61.24;97960.53;4859231;29;20040;-76
2021/01/31 01:18:30;;;;;;;24.27;10.27;;;;;;;4.07;61.01;97962.09;4859359;29;20033;-79
2021/01/31 01:20:55;;;;;;;17.65;9.20;;;;;;;4.04;61.06;97959.97;4859363;29;20068;-79
2021/01/31 01:23:21;;;;;;;16.50;7.72;;;;;;;4.00;61.25;97958.88;4843011;29;20116;-76
2021/01/31 01:25:46;;;;;;;7.10;4.47;;;;;;;3.96;61.17;97957.81;4863599;29;20033;-76
2021/01/31 01:28:13;;;;;;;5.80;3.83;;;;;;;3.96;61.03;97958.59;4877470;29;20411;-79
2021/01/31 01:30:39;;;;;;;7.55;3.25;;;;;;;3.99;60.68;97960.75;4860946;29;20036;-75
2021/01/31 01:33:04;;;;;;;6.15;2.75;;;;;;;3.96;60.88;97955.97;4877175;29;20045;-77
2021/01/31 01:35:30;;;;;;;5.40;2.67;;;;;;;3.96;60.49;97960.47;4875455;29;20071;-75
2021/01/31 01:37:56;;;;;;;7.15;4.22;;;;;;;3.97;60.52;97959.41;4877471;29;20068;-75
2021/01/31 01:40:37;;;;;;;4.68;3.17;;;;;;;3.99;60.60;97967.88;4879492;29;20053;-82
2021/01/31 01:43:03;;;;;;;5.90;3.25;;;;;;;4.03;60.45;97965.50;4869676;29;20155;-77
2021/01/31 01:45:29;;;;;;;6.43;3.83;;;;;;;4.05;60.55;97958.09;4859266;29;20037;-79
2021/01/31 01:47:59;;;;;;;8.73;4.65;;;;;;;4.07;60.58;97956.00;4846678;29;20033;-78
2021/01/31 01:50:24;;;;;;;12.38;5.57;;;;;;;4.10;60.83;97958.13;4851299;29;20044;-76
2021/01/31 01:52:52;;;;;;;17.05;7.10;;;;;;;4.11;60.41;97957.88;4839780;29;20034;-78
2021/01/31 01:55:20;;;;;;;14.75;7.55;;;;;;;4.09;60.27;97953.88;4824612;29;20076;-77
2021/01/31 01:57:58;;;;;;;14.93;6.88;;;;;;;4.13;60.67;97966.34;4835103;29;20041;-78
2021/01/31 02:00:24;;;;;;;11.15;6.45;;;;;;;4.16;60.30;97963.19;4842611;29;20089;-78
2021/01/31 02:03:08;;;;;;;12.70;6.35;;;;;;;4.18;60.42;97967.41;4860546;29;20123;-77
2021/01/31 02:05:34;;;;;;;9.73;6.43;;;;;;;4.17;60.25;97971.91;4877726;29;20538;-77
2021/01/31 02:07:59;;;;;;;12.07;6.20;;;;;;;4.19;59.95;97963.69;4860684;29;20033;-77
2021/01/31 02:10:26;;;;;;;13.68;7.03;;;;;;;4.21;60.48;97970.34;4861179;29;20040;-78
2021/01/31 02:12:57;;;;;;;9.55;5.80;;;;;;;4.15;60.53;97972.16;4843380;29;20093;-77
2021/01/31 02:15:23;;;;;;;7.72;4.82;;;;;;;4.23;60.47;97973.50;4839533;29;20041;-77
2021/01/31 02:18:19;;;;;;;10.80;6.25;;;;;;;4.27;59.99;97979.06;4854441;29;20060;-78
2021/01/31 02:21:11;;;;;;;16.73;8.40;;;;;;;4.27;59.98;97961.38;4877524;29;20056;-78
2021/01/31 02:24:03;;;;;;;15.52;5.80;;;;;;;4.24;59.84;97946.00;4869425;29;20050;-75
2021/01/31 02:27:08;;;;;;;10.65;5.15;;;;;;;4.23;59.76;97943.63;4862229;29;20037;-75
2021/01/31 02:29:39;;;;;;;9.82;4.95;;;;;;;4.18;60.02;97941.75;4811433;29;20129;-80
2021/01/31 02:32:17;;;;;;;10.50;6.78;;;;;;;4.18;60.06;97941.75;4851855;29;20388;-77
2021/01/31 02:35:03;;;;;;;14.98;7.38;;;;;;;4.14;60.54;97938.03;4881781;29;20037;-78
2021/01/31 02:37:57;;;;;;;29.08;14.27;;;;;;;4.07;60.89;97927.69;4863386;29;20037;-75
2021/01/31 02:40:52;;;;;;;19.48;9.25;;;;;;;4.02;60.94;97930.31;4881316;29;20049;-77
2021/01/31 02:43:33;;;;;;;11.55;6.88;;;;;;;3.98;60.87;97926.63;4858965;29;20049;-80
2021/01/31 02:46:45;;;;;;;15.82;8.73;;;;;;;3.97;61.31;97939.03;4864597;29;20033;-81
2021/01/31 02:49:22;;;;;;;11.05;6.60;;;;;;;3.93;61.22;97937.97;4833960;29;20037;-82
2021/01/31 02:52:02;;;;;;;12.05;6.70;;;;;;;3.91;61.26;97944.59;4831411;29;20033;-77
2021/01/31 02:54:37;;;;;;;13.27;6.90;;;;;;;3.88;61.72;97937.16;4843079;29;20034;-79
2021/01/31 02:57:09;;;;;;;14.43;7.45;;;;;;;3.86;61.61;97942.72;4853064;29;20040;-76
2021/01/31 03:02:28;;;;;;;15.15;8.02;;;;;;;3.91;61.65;97961.25;5290049;23;20097;-79
2021/01/31 03:05:01;;;;;;;20.20;9.90;;;;;;;3.96;61.70;97968.41;4845333;29;20033;-77
2021/01/31 03:07:31;;;;;;;16.55;8.98;;;;;;;3.99;61.89;97967.88;4845098;29;20037;-79
2021/01/31 03:10:02;;;;;;;19.10;10.55;;;;;;;4.01;62.28;97976.34;4845314;29;20040;-78
2021/01/31 03:12:41;;;;;;;22.20;11.80;;;;;;;4.00;62.18;97975.56;4842024;29;20057;-77
2021/01/31 03:15:15;;;;;;;25.85;13.38;;;;;;;3.97;62.67;97962.84;4841952;29;20093;-78
2021/01/31 03:18:00;;;;;;;22.10;11.32;;;;;;;3.95;62.27;97951.72;5254558;24;20017;-79
2021/01/31 03:20:34;;;;;;;24.50;11.68;;;;;;;3.92;63.01;97949.59;4826038;29;20168;-79
2021/01/31 03:23:08;;;;;;;23.63;11.55;;;;;;;3.88;62.39;97948.50;4843471;29;20521;-78
2021/01/31 03:25:44;;;;;;;24.55;10.77;;;;;;;3.82;62.69;97953.00;4826522;29;20034;-79
2021/01/31 03:28:10;;;;;;;19.60;10.52;;;;;;;3.80;62.85;97946.38;4826107;29;20069;-79
2021/01/31 03:30:35;;;;;;;29.33;12.30;;;;;;;3.79;63.08;97952.72;4826822;29;20667;-79
2021/01/31 03:33:07;;;;;;;30.10;14.02;;;;;;;3.75;63.18;97939.22;4841719;29;20166;-79
2021/01/31 03:35:40;;;;;;;23.98;12.80;;;;;;;3.71;63.14;97932.88;4841904;29;20029;-79
2021/01/31 03:38:29;;;;;;;21.10;11.75;;;;;;;3.67;62.72;97935.25;4841753;29;20083;-79
2021/01/31 03:40:58;;;;;;;21.58;12.20;;;;;;;3.69;63.21;97937.63;4841086;29;20026;-80
2021/01/31 03:43:23;;;;;;;;;;;;;;;3.66;63.44;97930.19;4826485;29;20173;-79
2021/01/31 03:45:58;;;;;;;21.17;9.63;;;;;;;3.61;63.14;97930.16;4841699;29;19955;-80
2021/01/31 03:48:27;;;;;;;19.65;10.70;;;;;;;3.60;63.46;97939.97;4842891;29;20029;-79
2021/01/31 03:50:52;;;;;;;22.73;11.70;;;;;;;3.62;63.26;97934.41;4825900;29;20523;-80
2021/01/31 03:53:18;;;;;;;27.83;14.80;;;;;;;3.59;64.12;97932.25;4826071;29;20069;-80
2021/01/31 03:55:44;;;;;;;26.35;13.98;;;;;;;3.57;64.57;97937.03;4841479;29;20037;-80
2021/01/31 03:58:12;;;;;;;24.98;14.27;;;;;;;3.50;64.32;97938.06;4830074;29;20038;-82
2021/01/31 04:01:09;;;;;;;18.40;11.35;;;;;;;3.43;64.58;97948.06;4851700;29;20030;-83
2021/01/31 04:03:41;;;;;;;17.55;9.07;;;;;;;3.43;64.72;97952.53;4827526;29;20033;-79
2021/01/31 04:06:19;;;;;;;11.70;6.43;;;;;;;3.43;65.52;97942.78;4825537;29;20075;-78
2021/01/31 04:08:48;;;;;;;12.05;6.38;;;;;;;3.50;65.66;97937.25;4826089;29;20030;-79
2021/01/31 04:11:36;;;;;;;10.45;6.03;;;;;;;3.53;65.33;97934.88;4814385;29;20119;-78
2021/01/31 04:14:10;;;;;;;12.60;7.60;;;;;;;3.57;65.16;97937.81;4809417;29;20035;-78
2021/01/31 04:16:42;;;;;;;18.92;7.85;;;;;;;3.60;64.77;97926.75;4807699;29;20034;-79
2021/01/31 04:22:39;;;;;;;20.25;10.25;;;;;;;3.64;64.41;97953.47;4816352;29;20054;-83
2021/01/31 04:25:08;;;;;;;18.77;10.75;;;;;;;3.63;64.29;97957.94;5092122;24;20073;-80
2021/01/31 04:34:46;;;;;;;29.63;15.65;;;;;;;3.62;64.44;97952.91;5964768;23;20039;31
2021/01/31 04:37:18;;;;;;;25.48;12.88;;;;;;;3.58;64.47;97963.22;4859090;29;20084;-80
2021/01/31 04:40:11;;;;;;;25.85;14.20;;;;;;;3.53;64.42;97963.97;4849295;29;20072;-80
2021/01/31 04:42:36;;;;;;;25.95;12.48;;;;;;;3.52;64.66;97966.88;4843665;29;20041;-77
2021/01/31 04:48:55;;;;;;;20.23;11.00;;;;;;;3.45;65.25;97959.16;4827008;29;20140;-80
2021/01/31 04:51:26;;;;;;;23.02;11.65;;;;;;;3.45;65.22;97951.22;4860301;29;20464;-79
2021/01/31 04:54:05;;;;;;;25.38;14.23;;;;;;;3.44;65.11;97943.56;4858281;29;20037;-78
2021/01/31 04:57:10;;;;;;;57.28;24.75;;;;;;;3.38;64.96;97937.44;4858524;29;20032;-78
2021/01/31 04:59:56;;;;;;;27.30;13.50;;;;;;;3.35;65.03;97937.97;4842777;29;20041;-80
2021/01/31 05:02:38;;;;;;;23.55;12.82;;;;;;;3.34;65.36;97937.19;4836902;29;20033;-80
2021/01/31 05:05:17;;;;;;;21.75;11.35;;;;;;;3.34;65.44;97933.72;5190380;23;20785;-78
2021/01/31 05:07:56;;;;;;;32.70;16.63;;;;;;;3.30;65.72;97930.81;4860479;29;20076;-80
2021/01/31 05:10:24;;;;;;;17.75;10.20;;;;;;;3.30;65.89;97935.31;4878085;29;20119;-78
2021/01/31 05:13:26;;;;;;;28.00;13.48;;;;;;;3.25;65.79;97911.47;4876664;29;20033;-80
2021/01/31 05:16:15;;;;;;;18.33;8.38;;;;;;;3.26;65.86;97921.00;4878466;29;20041;-80
2021/01/31 05:19:14;;;;;;;31.48;17.13;;;;;;;3.22;66.39;97912.00;4880698;29;20033;-83
2021/01/31 05:21:40;;;;;;;32.03;14.18;;;;;;;3.18;67.07;97909.06;4881314;29;20032;-79
2021/01/31 05:24:20;;;;;;;27.20;15.43;;;;;;;3.17;67.55;97910.13;4865062;29;20029;-82
2021/01/31 05:26:54;;;;;;;40.17;17.83;;;;;;;3.15;67.49;97904.28;4877104;29;20055;-80
2021/01/31 05:29:27;;;;;;;27.20;15.90;;;;;;;3.15;67.99;97909.56;4877376;29;20558;-78
2021/01/31 05:32:35;;;;;;;33.78;14.95;;;;;;;3.16;68.31;97900.59;4877779;29;20037;-82
2021/01/31 05:35:00;;;;;;;34.13;17.95;;;;;;;3.20;68.09;97901.69;4877833;29;20033;-81
2021/01/31 05:37:41;;;;;;;36.38;19.13;;;;;;;3.20;67.86;97915.69;4861884;29;20084;-81
2021/01/31 05:40:46;;;;;;;34.17;18.85;;;;;;;3.25;68.00;97925.50;4877137;29;20115;-80
2021/01/31 05:43:21;;;;;;;32.28;16.20;;;;;;;3.31;68.34;97926.34;4886521;29;20041;-80
2021/01/31 05:45:47;;;;;;;35.33;14.75;;;;;;;3.36;68.45;97932.44;4875621;29;20064;-79
2021/01/31 05:48:36;;;;;;;28.67;14.13;;;;;;;3.48;68.70;97936.72;4876991;29;20071;-79
2021/01/31 05:51:13;;;;;;;29.55;16.15;;;;;;;3.60;68.62;97929.38;4877581;29;20067;-79
2021/01/31 05:53:39;;;;;;;34.47;14.63;;;;;;;3.71;68.43;97929.41;4874540;29;20128;-80
2021/01/31 05:56:21;;;;;;;47.72;18.05;;;;;;;3.84;67.74;97944.81;4861130;29;20475;-78
2021/01/31 05:58:47;;;;;;;32.42;17.80;;;;;;;3.90;67.75;97937.69;4875404;29;20041;-78
2021/01/31 06:01:13;;;;;;;30.83;16.65;;;;;;;3.99;67.35;97942.22;4877110;29;20547;-81
2021/01/31 06:03:39;;;;;;;31.75;16.30;;;;;;;4.05;67.26;97947.53;4860260;29;20503;-80
2021/01/31 06:06:11;;;;;;;26.70;15.32;;;;;;;4.12;67.34;97945.44;4859919;29;20093;-80
2021/01/31 06:08:40;;;;;;;36.08;16.73;;;;;;;4.16;67.07;97949.94;4856194;29;20029;-80
2021/01/31 06:11:11;;;;;;;33.67;17.98;;;;;;;4.21;67.28;97949.19;4852487;29;20033;-78
2021/01/31 06:13:38;;;;;;;35.45;20.27;;;;;;;4.23;67.23;97947.03;4859958;29;20062;-78
2021/01/31 06:16:07;;;;;;;35.45;18.08;;;;;;;4.28;67.21;97952.34;4874652;29;20465;-79
2021/01/31 06:18:46;;;;;;;38.97;21.90;;;;;;;4.33;67.09;97946.28;4841955;29;20093;-79
2021/01/31 06:21:13;;;;;;;;;;;;;;;4.39;67.16;97939.13;4842001;29;20042;-80
2021/01/31 06:23:40;;;;;;;46.80;26.85;;;;;;;4.46;66.91;97937.03;4873070;29;20400;-80
2021/01/31 06:26:06;;;;;;;49.35;25.98;;;;;;;4.52;66.79;97945.75;4860999;29;20040;-78
2021/01/31 06:28:45;;;;;;;39.25;21.92;;;;;;;4.61;66.24;97938.91;4876938;29;20463;-77
2021/01/31 06:31:31;;;;;;;58.28;29.65;;;;;;;4.72;65.73;97950.28;4859437;29;20101;-78
2021/01/31 06:33:58;;;;;;;45.80;26.65;;;;;;;4.76;65.32;97943.41;4861667;29;20491;-81
2021/01/31 06:39:12;;;;;;;56.30;30.88;;;;;;;4.77;65.43;97953.75;5167658;23;20061;-79
2021/01/31 06:41:48;;;;;;;51.30;30.70;;;;;;;4.78;65.00;97941.28;4876637;29;20077;-78
2021/01/31 06:45:04;;;;;;;75.85;41.88;;;;;;;4.82;65.11;97966.19;4867060;29;20032;-81
2021/01/31 06:48:03;;;;;;;93.40;52.58;;;;;;;4.78;65.11;97965.91;4861436;29;20507;-81
2021/01/31 06:51:11;;;;;;;94.90;46.70;;;;;;;4.75;65.90;97968.31;4857038;29;20045;-81
2021/01/31 06:59:58;;;;;;;33.88;19.23;;;;;;;4.78;67.50;97981.03;5093740;23;20061;-73
2021/01/31 07:02:33;;;;;;;40.23;22.83;;;;;;;4.84;67.42;97990.56;4856323;29;20519;-74
2021/01/31 07:05:19;;;;;;;38.95;21.20;;;;;;;4.85;67.62;97981.56;4871760;29;20037;-78
2021/01/31 07:07:58;;;;;;;40.60;21.60;;;;;;;4.88;67.81;97983.69;4851851;29;20048;-80
2021/01/31 07:10:29;;;;;;;32.60;19.85;;;;;;;4.88;67.96;97988.19;4862012;29;20044;-80
2021/01/31 07:18:58;;;;;;;34.42;18.20;;;;;;;4.93;68.55;97977.56;5176671;23;20068;31
2021/01/31 07:21:35;;;;;;;33.03;17.45;;;;;;;4.99;68.46;97973.09;4815950;29;20050;-80
2021/01/31 07:24:06;;;;;;;27.63;16.35;;;;;;;5.03;68.45;97960.88;4826337;29;20053;-81
2021/01/31 07:29:49;;;;;;;26.13;15.38;;;;;;;5.12;68.78;97967.25;4833394;29;20049;-77
2021/01/31 07:32:24;;;;;;;27.60;14.25;;;;;;;5.12;68.71;97964.59;4806658;29;20118;-74
2021/01/31 07:35:01;;;;;;;23.33;12.70;;;;;;;5.08;69.23;97974.16;4823611;29;20030;-74
2021/01/31 07:37:28;;;;;;;18.17;12.57;;;;;;;5.07;69.48;97969.91;4825211;29;20030;-79
2021/01/31 07:40:07;;;;;;;25.65;13.30;;;;;;;5.08;69.15;97966.19;4823512;29;20469;-80
2021/01/31 07:42:43;;;;;;;20.33;12.75;;;;;;;5.14;69.36;97957.19;4817227;29;20038;-81
2021/01/31 08:07:06;;;;;;;26.42;14.13;;;;;;;6.20;66.28;97972.28;4863070;29;20614;-80
2021/01/31 08:09:32;;;;;;;31.30;16.33;;;;;;;6.38;66.12;97980.66;4863512;29;20080;-81
2021/01/31 08:12:54;;;;;;;26.70;14.75;;;;;;;6.64;66.52;97985.81;4893751;29;20036;-82
2021/01/31 08:16:03;;;;;;;27.85;16.25;;;;;;;6.88;64.44;97985.91;4881646;29;20112;-81
2021/01/31 08:18:29;;;;;;;27.35;15.30;;;;;;;7.09;64.08;97993.72;4861436;29;20506;-79
2021/01/31 08:20:55;;;;;;;27.67;16.33;;;;;;;7.34;64.12;97998.03;4853400;29;20030;-80
2021/01/31 08:23:35;;;;;;;30.60;17.27;;;;;;;7.60;62.55;97995.91;4844486;29;20033;-78
2021/01/31 08:26:04;;;;;;;25.20;16.05;;;;;;;7.81;62.47;97993.03;4860014;29;20089;-80
2021/01/31 08:28:35;;;;;;;28.50;14.90;;;;;;;8.01;60.51;97992.03;4858074;29;20057;-79
2021/01/31 08:31:01;;;;;;;20.10;13.10;;;;;;;8.21;59.63;97992.84;4861420;29;20022;-80
2021/01/31 08:33:35;;;;;;;20.08;11.77;;;;;;;8.38;59.25;97993.13;4867437;29;20072;-77
2021/01/31 08:36:04;;;;;;;22.90;13.40;;;;;;;8.49;59.66;98002.63;4861437;29;20029;-78
2021/01/31 08:38:31;;;;;;;19.02;9.38;;;;;;;8.64;59.81;98006.94;4860593;29;20041;-79
2021/01/31 08:41:05;;;;;;;14.27;8.27;;;;;;;8.72;58.23;98007.38;4849040;29;20089;-77
2021/01/31 08:43:50;;;;;;;16.70;8.57;;;;;;;8.74;58.59;98003.34;4843211;29;20034;-78
2021/01/31 08:46:29;;;;;;;13.73;7.03;;;;;;;8.73;58.79;98012.41;4855882;29;20028;-78
2021/01/31 08:48:58;;;;;;;14.90;7.85;;;;;;;8.70;59.11;98007.66;4859901;29;20040;-79
2021/01/31 08:51:34;;;;;;;15.43;8.57;;;;;;;8.69;59.51;98008.75;4862905;29;20116;-79
2021/01/31 08:54:20;;;;;;;16.02;9.05;;;;;;;8.62;59.76;98019.75;4872700;29;20041;-77
2021/01/31 08:56:53;;;;;;;15.55;10.10;;;;;;;8.69;59.88;98030.06;4840973;29;20091;-76
2021/01/31 08:59:22;;;;;;;18.40;8.60;;;;;;;8.72;58.91;98010.81;4860244;29;20503;-78
2021/01/31 09:02:02;;;;;;;16.83;9.48;;;;;;;8.66;59.50;98003.97;4852205;29;20034;-77
2021/01/31 09:04:29;;;;;;;27.98;12.10;;;;;;;8.55;59.21;98005.22;4851372;29;20030;-77
2021/01/31 09:07:00;;;;;;;14.98;8.27;;;;;;;8.47;59.25;98015.44;4832034;29;20062;-79
2021/01/31 09:09:36;;;;;;;11.13;7.22;;;;;;;8.29;60.01;98010.84;4822609;29;20037;-79
2021/01/31 09:12:05;;;;;;;13.60;7.28;;;;;;;8.08;59.91;98016.44;4828087;29;20484;-79
2021/01/31 09:14:38;;;;;;;9.48;6.05;;;;;;;7.93;60.47;98017.38;4837509;29;20571;-79
2021/01/31 09:17:08;;;;;;;8.13;5.93;;;;;;;7.78;60.98;98028.22;4824593;29;20045;-78
2021/01/31 09:19:33;;;;;;;13.75;6.90;;;;;;;7.57;61.12;98014.31;4841104;29;20037;-78
2021/01/31 09:22:08;;;;;;;11.25;7.28;;;;;;;7.48;60.94;98027.44;4839548;29;20025;-78
2021/01/31 09:24:42;;;;;;;10.57;7.50;;;;;;;7.33;61.53;98023.81;4839898;29;20461;-78
2021/01/31 09:27:16;;;;;;;13.07;7.35;;;;;;;7.32;61.75;98029.44;4839810;29;20488;-78
2021/01/31 09:29:43;;;;;;;9.98;6.88;;;;;;;7.30;61.63;98012.97;4824867;29;20488;-78
2021/01/31 09:32:24;;;;;;;11.25;7.57;;;;;;;7.36;62.30;98027.78;4841307;29;20551;-78
2021/01/31 09:34:52;;;;;;;13.18;8.35;;;;;;;7.46;62.36;98032.25;4824586;29;20173;-78
2021/01/31 09:37:20;;;;;;;17.50;8.55;;;;;;;7.60;62.37;98033.16;4839574;29;20094;-78
2021/01/31 09:39:46;;;;;;;11.10;7.20;;;;;;;7.71;62.36;98020.56;4839531;29;20037;-78
2021/01/31 09:42:12;;;;;;;13.00;8.13;;;;;;;7.81;61.52;98032.97;4824420;29;20037;-78
2021/01/31 09:44:43;;;;;;;12.45;7.65;;;;;;;7.90;62.01;98036.59;4824653;29;20102;-77
2021/01/31 09:47:09;;;;;;;12.75;7.72;;;;;;;7.93;61.93;98021.94;4824617;29;20030;-77
2021/01/31 09:49:35;;;;;;;12.57;7.82;;;;;;;7.94;61.53;98024.28;4824389;29;20036;-78
2021/01/31 09:52:09;;;;;;;11.95;8.40;;;;;;;7.94;61.09;98023.53;4824697;29;20408;-78
2021/01/31 09:54:35;;;;;;;14.48;9.05;;;;;;;7.96;61.88;98011.50;4839343;29;20121;-78
2021/01/31 09:57:05;;;;;;;14.43;8.90;;;;;;;7.95;61.72;98017.91;4824427;29;20034;-77
2021/01/31 09:59:36;;;;;;;15.25;7.93;;;;;;;8.00;61.87;98015.16;4840419;29;20034;-77
2021/01/31 10:02:17;;;;;;;16.15;9.70;;;;;;;8.01;62.17;98014.09;4840572;29;20117;-77
2021/01/31 10:04:44;;;;;;;14.40;8.98;;;;;;;8.02;62.12;98013.03;4839170;29;20044;-77
2021/01/31 10:07:11;;;;;;;13.60;8.98;;;;;;;8.07;62.14;98017.50;4839506;29;20496;-79
2021/01/31 10:09:43;;;;;;;17.83;9.25;;;;;;;8.07;62.37;98012.19;4823874;29;20114;-77
2021/01/31 10:12:20;;;;;;;15.35;9.13;;;;;;;8.11;61.79;98018.50;4823993;29;20120;-77
2021/01/31 10:14:48;;;;;;;15.88;10.70;;;;;;;8.13;62.50;98021.69;4840662;29;20121;-77
2021/01/31 10:17:20;;;;;;;17.88;10.18;;;;;;;8.20;61.99;98021.34;4840560;29;20022;-78
2021/01/31 10:19:46;;;;;;;12.52;9.68;;;;;;;8.24;62.02;98019.69;4824157;29;20121;-79
2021/01/31 10:22:25;;;;;;;15.02;9.90;;;;;;;8.26;62.02;98016.75;4840545;29;20552;-79
2021/01/31 10:24:52;;;;;;;14.32;9.35;;;;;;;8.27;61.89;98005.78;4839098;29;20034;-78
2021/01/31 10:27:29;;;;;;;16.73;9.93;;;;;;;8.30;61.89;98010.56;4823761;29;20180;-78
2021/01/31 10:30:16;;;;;;;16.58;9.60;;;;;;;8.26;61.83;97992.78;4840300;29;20038;-78
2021/01/31 10:32:42;;;;;;;12.25;8.73;;;;;;;8.29;61.91;98000.22;4840312;29;20030;-79
2021/01/31 10:35:26;;;;;;;16.48;9.60;;;;;;;8.24;62.15;97989.59;4840373;29;20592;-78
2021/01/31 10:37:53;;;;;;;15.73;9.90;;;;;;;8.25;62.97;97986.66;4839223;29;20033;-78
2021/01/31 10:40:18;;;;;;;19.92;10.57;;;;;;;8.33;62.83;97982.56;4838782;29;20030;-78
2021/01/31 10:42:43;;;;;;;16.77;8.93;;;;;;;8.38;62.96;97971.03;4840211;29;20034;-78
2021/01/31 10:45:13;;;;;;;16.25;9.50;;;;;;;8.44;62.63;97981.34;4840176;29;20113;-78
2021/01/31 10:47:38;;;;;;;16.08;10.02;;;;;;;8.50;62.95;97976.75;4823343;29;20034;-78
2021/01/31 10:50:06;;;;;;;17.17;10.05;;;;;;;8.49;62.27;97967.19;4839757;29;20045;-79
2021/01/31 10:52:33;;;;;;;16.00;10.23;;;;;;;8.53;62.23;97973.50;4824616;29;20114;-79
2021/01/31 10:54:58;;;;;;;20.88;12.30;;;;;;;8.58;62.29;97964.66;4842188;29;20604;-78
2021/01/31 10:57:23;;;;;;;22.55;13.43;;;;;;;8.64;62.36;97960.81;4843563;29;20125;-79
2021/01/31 10:59:49;;;;;;;14.77;10.50;;;;;;;8.69;62.55;97944.78;4843395;29;20026;-78
2021/01/31 11:02:14;;;;;;;17.50;11.13;;;;;;;8.74;62.45;97942.03;4843333;29;20026;-78
2021/01/31 11:04:40;;;;;;;12.40;8.70;;;;;;;8.79;63.11;97944.59;4826414;29;20102;-78
2021/01/31 11:07:05;;;;;;;16.00;10.15;;;;;;;8.87;63.29;97932.47;4826580;29;20094;-79
2021/01/31 11:09:31;;;;;;;11.57;6.90;;;;;;;9.02;63.07;97947.44;4842879;29;20038;-79
2021/01/31 11:11:56;;;;;;;15.02;9.35;;;;;;;9.09;62.71;97942.53;4842049;29;20026;-78
2021/01/31 11:14:22;;;;;;;17.55;9.45;;;;;;;9.17;61.69;97935.72;4841388;29;20483;-78
2021/01/31 11:16:48;;;;;;;21.10;12.18;;;;;;;9.23;61.67;97945.22;4842777;29;20069;-78
2021/01/31 11:19:14;;;;;;;17.00;9.75;;;;;;;9.32;61.68;97933.88;4826449;29;20034;-78
2021/01/31 11:21:39;;;;;;;18.23;10.02;;;;;;;9.37;61.38;97939.88;4826160;29;20022;-78
2021/01/31 11:24:05;;;;;;;21.15;11.75;;;;;;;9.41;61.50;97934.75;4843419;29;20034;-77
2021/01/31 11:26:30;;;;;;;14.13;7.65;;;;;;;9.46;61.53;97929.34;4841309;29;20022;-78
2021/01/31 11:28:56;;;;;;;13.75;8.60;;;;;;;9.53;61.52;97920.94;4841454;29;20121;-79
2021/01/31 11:31:23;;;;;;;16.73;8.93;;;;;;;9.57;61.53;97913.91;4841325;29;20025;-78
2021/01/31 11:33:50;;;;;;;16.23;9.98;;;;;;;9.64;61.04;97921.53;4841265;29;20034;-79
2021/01/31 11:36:16;;;;;;;15.38;9.50;;;;;;;9.68;61.05;97927.84;4841428;29;20030;-78
2021/01/31 11:38:41;;;;;;;21.50;11.68;;;;;;;9.69;61.24;97916.88;4842747;29;20569;-78
2021/01/31 11:41:07;;;;;;;20.92;11.90;;;;;;;9.67;60.87;97921.72;4826084;29;20040;-78
2021/01/31 11:43:32;;;;;;;21.10;11.35;;;;;;;9.67;61.00;97907.59;4825713;29;20038;-79
2021/01/31 11:45:58;;;;;;;16.90;10.18;;;;;;;9.68;61.55;97915.31;4842810;29;20033;-79
2021/01/31 11:48:23;;;;;;;19.27;10.32;;;;;;;9.68;62.27;97907.28;4841862;29;20026;-77
2021/01/31 11:50:49;;;;;;;10.60;6.90;;;;;;;9.71;63.38;97889.88;4825755;29;20126;-77
2021/01/31 11:53:15;;;;;;;11.63;6.97;;;;;;;9.86;64.09;97896.78;4841082;29;20133;-77
2021/01/31 11:55:40;;;;;;;6.78;4.38;;;;;;;9.96;65.55;97877.88;4842094;29;20100;-79
2021/01/31 11:58:06;;;;;;;4.57;3.38;;;;;;;10.10;65.68;97875.16;4840787;29;20393;-79
2021/01/31 12:00:32;;;;;;;7.80;3.33;;;;;;;10.25;65.62;97876.69;4840702;29;20030;-78
2021/01/31 12:02:57;;;;;;;6.60;4.43;;;;;;;10.42;65.29;97876.06;4840332;29;20041;-79
2021/01/31 12:05:23;;;;;;;3.95;2.75;;;;;;;10.56;65.05;97882.16;4839732;29;20057;-79
2021/01/31 12:07:50;;;;;;;8.63;3.88;;;;;;;10.72;64.38;97885.25;4841748;29;20022;-78
2021/01/31 12:10:16;;;;;;;7.00;3.42;;;;;;;10.85;64.24;97893.50;4824848;29;20033;-78
2021/01/31 12:12:42;;;;;;;10.82;5.65;;;;;;;10.93;64.30;97870.59;4824772;29;20057;-77
2021/01/31 12:15:10;;;;;;;8.45;4.93;;;;;;;11.04;63.45;97878.03;4824728;29;20126;-77
2021/01/31 12:17:36;;;;;;;10.55;5.88;;;;;;;11.15;63.40;97878.53;4841140;29;20034;-78
2021/01/31 12:20:03;;;;;;;8.10;5.03;;;;;;;11.21;63.75;97876.53;4839962;29;20046;-77
2021/01/31 12:22:28;;;;;;;10.20;5.32;;;;;;;11.29;62.90;97891.84;4841439;29;20034;-77
2021/01/31 12:24:54;;;;;;;9.15;5.47;;;;;;;11.37;63.43;97887.59;4824693;29;20087;-77
2021/01/31 12:27:29;;;;;;;8.73;5.38;;;;;;;11.42;63.43;97892.81;4841312;29;20586;-78
2021/01/31 12:29:55;;;;;;;10.80;5.78;;;;;;;11.49;62.94;97890.47;4841262;29;20163;-77
2021/01/31 12:32:21;;;;;;;10.05;5.22;;;;;;;11.54;62.82;97894.91;4824373;29;20052;-77
2021/01/31 12:34:47;;;;;;;10.82;5.80;;;;;;;11.58;62.70;97885.16;4839675;29;20034;-79
2021/01/31 12:37:13;;;;;;;12.07;6.50;;;;;;;11.63;62.94;97895.75;4839665;29;20037;-77
2021/01/31 12:39:39;;;;;;;11.88;7.15;;;;;;;11.68;62.73;97889.44;4839172;29;20031;-77
2021/01/31 12:42:04;;;;;;;9.80;5.43;;;;;;;11.71;62.56;97882.69;4839414;29;20041;-77
2021/01/31 12:44:30;;;;;;;13.48;5.55;;;;;;;11.73;62.58;97872.44;4824197;29;20033;-77
2021/01/31 12:46:55;;;;;;;11.23;5.00;;;;;;;11.78;62.74;97883.00;4839562;29;20034;-79
2021/01/31 12:49:21;;;;;;;6.47;4.30;;;;;;;11.78;62.80;97866.91;4840847;29;20404;-78
2021/01/31 12:51:46;;;;;;;11.30;5.63;;;;;;;11.80;62.41;97868.22;4824199;29;20038;-78
2021/01/31 12:54:11;;;;;;;9.40;5.32;;;;;;;11.81;62.84;97860.94;4840457;29;20044;-78
2021/01/31 12:56:37;;;;;;;8.68;4.93;;;;;;;11.84;62.92;97873.72;4824153;29;20030;-78